createdAt,value
2022-12-23T00:00:43.281Z,101.50
2022-12-23T00:03:11.758Z,98.13
2022-12-23T00:05:40.916Z,100.90
2022-12-23T00:08:09.542Z,101.07
2022-12-23T00:10:40.316Z,101.20
2022-12-23T00:13:26.513Z,102.57
2022-12-23T00:16:03.643Z,101.97
2022-12-23T00:18:32.154Z,101.57
2022-12-23T00:21:06.666Z,99.43
2022-12-23T00:23:37.447Z,98.50
2022-12-23T00:26:05.877Z,99.20
2022-12-23T00:28:34.622Z,96.40
2022-12-23T00:31:05.596Z,96.83
2022-12-23T00:33:34.839Z,99.97
2022-12-23T00:36:03.423Z,97.30
2022-12-23T00:38:49.303Z,97.67
2022-12-23T00:41:36.117Z,96.90
2022-12-23T00:44:05.075Z,94.33
2022-12-23T00:46:34.861Z,97.27
2022-12-23T00:49:21.023Z,96.00
2022-12-23T00:51:49.407Z,94.03
2022-12-23T00:54:18.190Z,94.43
2022-12-23T00:56:46.689Z,96.27
2022-12-23T00:59:15.067Z,97.57
2022-12-23T01:02:14.092Z,98.77
2022-12-23T01:05:00.216Z,98.30
2022-12-23T01:07:28.730Z,97.57
2022-12-23T01:09:57.214Z,98.83
2022-12-23T01:12:25.607Z,97.03
2022-12-23T01:14:54.320Z,97.50
2022-12-23T01:17:24.106Z,98.87
2022-12-23T01:19:52.577Z,100.03
2022-12-23T01:22:20.974Z,99.97
2022-12-23T01:24:49.366Z,100.67
2022-12-23T01:27:17.783Z,99.80
2022-12-23T01:29:47.499Z,98.13
2022-12-23T01:32:16.069Z,100.40
2022-12-23T01:34:45.881Z,100.30
2022-12-23T01:37:14.322Z,102.17
2022-12-23T01:39:43.199Z,98.03
2022-12-23T01:42:30.905Z,101.83
2022-12-23T01:45:00.724Z,98.53
2022-12-23T01:47:32.199Z,102.70
2022-12-23T01:50:04.700Z,99.27
2022-12-23T01:52:36.520Z,99.17
2022-12-23T01:55:04.987Z,100.53
2022-12-23T01:57:33.459Z,100.33
2022-12-23T02:00:19.801Z,103.23
2022-12-23T02:03:06.249Z,98.07
2022-12-23T02:05:36.507Z,101.57
2022-12-23T02:08:22.803Z,100.47
2022-12-23T02:11:03.260Z,101.47
2022-12-23T02:13:33.326Z,96.43
2022-12-23T02:16:17.400Z,100.13
2022-12-23T02:18:57.878Z,98.63
2022-12-23T02:21:44.215Z,97.17
2022-12-23T02:24:25.461Z,95.27
2022-12-23T02:27:12.464Z,92.60
2022-12-23T02:29:53.870Z,93.60
2022-12-23T02:32:26.471Z,94.57
2022-12-23T02:34:56.017Z,94.73
2022-12-23T02:37:27.350Z,92.73
2022-12-23T02:39:57.007Z,92.10
2022-12-23T02:42:27.614Z,92.10
2022-12-23T02:44:58.597Z,91.87
2022-12-23T02:47:29.746Z,92.43
2022-12-23T02:49:59.874Z,90.63
2022-12-23T02:52:31.195Z,93.10
2022-12-23T02:55:02.004Z,91.40
2022-12-23T02:57:33.189Z,94.90
2022-12-23T03:00:03.132Z,95.47
2022-12-23T03:02:34.368Z,96.47
2022-12-23T03:05:02.845Z,95.73
2022-12-23T03:07:33.067Z,93.40
2022-12-23T03:10:05.740Z,92.80
2022-12-23T03:12:38.692Z,88.33
2022-12-23T03:15:13.624Z,92.77
2022-12-23T03:17:50.579Z,94.60
2022-12-23T03:20:23.677Z,94.60
2022-12-23T03:22:56.361Z,91.10
2022-12-23T03:25:27.197Z,93.17
2022-12-23T03:27:59.156Z,95.80
2022-12-23T03:30:27.644Z,94.43
2022-12-23T03:32:58.609Z,94.67
2022-12-23T03:35:29.181Z,97.50
2022-12-23T03:37:58.134Z,97.67
2022-12-23T03:40:28.849Z,94.60
2022-12-23T03:42:59.647Z,96.97
2022-12-23T03:45:39.798Z,93.70
2022-12-23T03:48:12.887Z,92.60
2022-12-23T03:50:42.900Z,95.83
2022-12-23T03:53:12.706Z,94.57
2022-12-23T03:55:43.166Z,94.53
2022-12-23T03:58:13.856Z,93.50
2022-12-23T04:00:46.482Z,95.67
2022-12-23T04:03:19.737Z,94.17
2022-12-23T04:05:52.192Z,92.97
2022-12-23T04:08:23.545Z,93.47
2022-12-23T04:10:52.040Z,93.97
2022-12-23T04:13:20.492Z,92.83
2022-12-23T04:15:49.145Z,96.37
2022-12-23T04:18:18.932Z,90.83
2022-12-23T04:20:47.424Z,92.97
2022-12-23T04:23:15.806Z,94.40
2022-12-23T04:25:44.183Z,97.93
2022-12-23T04:28:12.603Z,94.87
2022-12-23T04:30:41.005Z,94.87
2022-12-23T04:33:09.386Z,97.90
2022-12-23T04:35:39.193Z,98.63
2022-12-23T04:38:07.623Z,101.73
2022-12-23T04:40:36.015Z,94.57
2022-12-23T04:43:04.433Z,97.10
2022-12-23T04:45:34.186Z,94.80
2022-12-23T04:48:02.592Z,93.73
2022-12-23T04:50:31.006Z,98.40
2022-12-23T04:53:00.765Z,96.20
2022-12-23T04:55:29.203Z,96.33
2022-12-23T04:57:57.591Z,96.70
2022-12-23T05:00:26.096Z,95.93
2022-12-23T05:02:54.664Z,96.73
2022-12-23T05:05:23.222Z,96.80
2022-12-23T05:07:52.051Z,96.00
2022-12-23T05:10:21.815Z,95.83
2022-12-23T05:12:50.266Z,96.73
2022-12-23T05:15:18.769Z,95.57
2022-12-23T05:17:47.164Z,96.57
2022-12-23T05:20:15.645Z,96.53
2022-12-23T05:22:44.026Z,93.87
2022-12-23T05:25:12.453Z,96.17
2022-12-23T05:27:42.523Z,96.27
2022-12-23T05:30:11.535Z,94.30
2022-12-23T05:32:40.384Z,96.60
2022-12-23T05:35:09.105Z,96.90
2022-12-23T05:37:37.483Z,97.27
2022-12-23T05:40:06.243Z,93.10
2022-12-23T05:42:34.787Z,97.53
2022-12-23T05:45:04.609Z,96.20
2022-12-23T05:47:32.987Z,92.17
2022-12-23T05:50:01.427Z,91.87
2022-12-23T05:52:29.828Z,94.57
2022-12-23T05:54:58.239Z,89.50
2022-12-23T05:57:26.667Z,89.40
2022-12-23T05:59:55.042Z,88.30
2022-12-23T06:02:24.964Z,90.73
2022-12-23T06:04:53.566Z,87.93
2022-12-23T06:07:22.952Z,89.50
2022-12-23T06:09:51.363Z,88.53
2022-12-23T06:12:19.785Z,86.43
2022-12-23T06:14:48.160Z,85.60
2022-12-23T06:17:16.551Z,86.50
2022-12-23T06:19:47.391Z,82.57
2022-12-23T06:22:15.856Z,83.90
2022-12-23T06:24:44.270Z,84.07
2022-12-23T06:27:12.670Z,82.40
2022-12-23T06:29:41.043Z,80.47
2022-12-23T06:32:09.538Z,59.87
2022-12-23T06:34:38.032Z,57.23
2022-12-23T06:37:07.764Z,50.27
2022-12-23T06:39:36.312Z,56.27
2022-12-23T06:42:04.773Z,46.60
2022-12-23T06:44:33.175Z,45.90
2022-12-23T06:47:01.527Z,49.33
2022-12-23T06:49:29.958Z,49.57
2022-12-23T06:51:58.419Z,46.17
2022-12-23T06:54:28.128Z,46.97
2022-12-23T06:56:56.671Z,50.97
2022-12-23T06:59:25.072Z,46.77
2022-12-23T07:01:53.539Z,47.70
2022-12-23T07:04:22.043Z,46.13
2022-12-23T07:06:50.587Z,44.63
2022-12-23T07:09:19.121Z,54.60
2022-12-23T07:11:48.899Z,73.53
2022-12-23T07:14:17.609Z,77.27
2022-12-23T07:16:46.388Z,78.30
2022-12-23T07:19:14.967Z,80.87
2022-12-23T07:21:43.344Z,77.13
2022-12-23T07:24:11.940Z,76.03
2022-12-23T07:26:40.358Z,79.23
2022-12-23T07:29:10.171Z,78.37
2022-12-23T07:31:41.039Z,78.83
2022-12-23T07:34:09.984Z,75.27
2022-12-23T07:36:38.441Z,76.17
2022-12-23T07:39:06.969Z,79.03
2022-12-23T07:41:35.555Z,77.23
2022-12-23T07:44:03.969Z,75.07
2022-12-23T07:46:33.777Z,75.77
2022-12-23T07:49:02.261Z,77.13
2022-12-23T07:51:30.652Z,76.47
2022-12-23T07:53:59.330Z,78.30
2022-12-23T07:56:27.774Z,77.87
2022-12-23T07:58:56.430Z,74.83
2022-12-23T08:01:25.115Z,77.63
2022-12-23T08:03:54.965Z,78.60
2022-12-23T08:06:23.602Z,80.30
2022-12-23T08:08:52.213Z,80.37
2022-12-23T08:11:20.622Z,81.30
2022-12-23T08:13:49.577Z,79.50
2022-12-23T08:16:18.027Z,80.93
2022-12-23T08:18:46.485Z,82.00
2022-12-23T08:21:18.013Z,83.03
2022-12-23T08:23:47.210Z,79.13
2022-12-23T08:26:16.671Z,64.37
2022-12-23T08:28:45.351Z,57.27
2022-12-23T08:31:15.659Z,74.00
2022-12-23T08:33:44.732Z,81.67
2022-12-23T08:36:22.220Z,84.13
2022-12-23T08:38:53.079Z,84.00
2022-12-23T08:41:23.864Z,83.17
2022-12-23T08:43:52.459Z,80.93
2022-12-23T08:46:21.281Z,84.30
2022-12-23T08:48:50.190Z,82.57
2022-12-23T08:51:19.999Z,83.90
2022-12-23T08:53:48.706Z,80.90
2022-12-23T08:56:21.718Z,84.70
2022-12-23T08:58:51.165Z,86.33
2022-12-23T09:01:20.343Z,82.03
2022-12-23T09:03:48.815Z,84.37
2022-12-23T09:06:24.769Z,85.90
2022-12-23T09:08:57.003Z,83.80
2022-12-23T09:11:28.104Z,87.37
2022-12-23T09:13:56.631Z,86.80
2022-12-23T09:16:25.137Z,87.17
2022-12-23T09:18:53.648Z,83.93
2022-12-23T09:21:23.337Z,85.30
2022-12-23T09:23:52.037Z,88.83
2022-12-23T09:26:21.743Z,88.80
2022-12-23T09:28:51.548Z,89.23
2022-12-23T09:31:20.211Z,89.10
2022-12-23T09:33:49.178Z,90.30
2022-12-23T09:36:17.721Z,90.47
2022-12-23T09:38:46.217Z,91.80
2022-12-23T09:41:19.198Z,96.63
2022-12-23T09:43:54.345Z,94.97
2022-12-23T09:46:25.927Z,92.23
2022-12-23T09:48:59.795Z,100.03
2022-12-23T09:51:29.119Z,97.47
2022-12-23T09:54:00.268Z,97.93
2022-12-23T09:56:33.014Z,96.80
2022-12-23T09:59:05.168Z,97.23
2022-12-23T10:01:44.656Z,98.13
2022-12-23T10:04:31.157Z,98.70
2022-12-23T10:07:15.267Z,93.43
2022-12-23T10:09:44.670Z,99.03
2022-12-23T10:12:21.055Z,96.57
2022-12-23T10:14:54.537Z,92.17
2022-12-23T10:17:28.104Z,94.20
2022-12-23T10:19:58.675Z,95.60
2022-12-23T10:22:28.275Z,94.83
2022-12-23T10:24:58.165Z,94.00
2022-12-23T10:27:29.146Z,91.70
2022-12-23T10:29:57.649Z,93.90
2022-12-23T10:32:30.846Z,93.03
2022-12-23T10:35:02.967Z,92.37
2022-12-23T10:37:34.764Z,91.57
2022-12-23T10:40:11.899Z,92.63
2022-12-23T10:42:44.270Z,89.77
2022-12-23T10:45:18.989Z,95.60
2022-12-23T10:47:53.934Z,88.23
2022-12-23T10:50:46.128Z,87.60
2022-12-23T10:53:17.742Z,86.00
2022-12-23T10:55:46.844Z,85.70
2022-12-23T10:58:18.252Z,84.23
2022-12-23T11:00:48.261Z,85.50
2022-12-23T11:03:20.720Z,85.10
2022-12-23T11:05:51.094Z,84.53
2022-12-23T11:08:20.366Z,84.17
2022-12-23T11:10:49.265Z,84.60
2022-12-23T11:13:26.434Z,84.30
2022-12-23T11:15:54.949Z,87.33
2022-12-23T11:18:24.787Z,83.93
2022-12-23T11:21:03.858Z,82.77
2022-12-23T11:23:33.406Z,85.57
2022-12-23T11:26:02.602Z,88.47
2022-12-23T11:28:31.591Z,88.43
2022-12-23T11:31:05.576Z,93.70
2022-12-23T11:33:36.328Z,100.23
2022-12-23T11:36:06.734Z,98.23
2022-12-23T11:38:35.903Z,101.33
2022-12-23T11:41:05.563Z,101.53
2022-12-23T11:43:34.803Z,96.83
2022-12-23T11:46:16.222Z,95.17
2022-12-23T11:48:51.360Z,94.40
2022-12-23T11:51:27.901Z,103.00
2022-12-23T11:54:01.006Z,90.13
2022-12-23T11:56:30.770Z,90.13
2022-12-23T11:59:03.156Z,90.33
2022-12-23T12:01:31.600Z,87.27
2022-12-23T12:04:02.981Z,92.33
2022-12-23T12:06:33.084Z,106.73
2022-12-23T12:09:03.149Z,87.33
2022-12-23T12:11:35.299Z,83.33
2022-12-23T12:14:05.045Z,82.87
2022-12-23T12:16:43.171Z,77.90
2022-12-23T12:19:14.795Z,75.30
2022-12-23T12:21:44.759Z,89.10
2022-12-23T12:24:19.235Z,78.53
2022-12-23T12:26:51.363Z,74.70
2022-12-23T12:29:23.352Z,73.13
2022-12-23T12:31:53.343Z,73.13
2022-12-23T12:34:34.725Z,72.87
2022-12-23T12:37:07.976Z,92.90
2022-12-23T12:39:38.381Z,78.87
2022-12-23T12:42:13.251Z,72.93
2022-12-23T12:44:45.340Z,76.10
2022-12-23T12:47:44.776Z,71.97
2022-12-23T12:50:10.177Z,75.77
2022-12-23T12:52:41.273Z,89.67
2022-12-23T12:55:14.370Z,76.57
2022-12-23T12:57:43.064Z,76.93
2022-12-23T13:00:16.255Z,76.33
2022-12-23T13:02:59.577Z,78.37
2022-12-23T13:05:53.737Z,80.67
2022-12-23T13:08:30.857Z,78.43
2022-12-23T13:11:02.625Z,77.90
2022-12-23T13:13:37.448Z,75.63
2022-12-23T13:16:09.163Z,77.37
2022-12-23T13:18:40.255Z,85.87
2022-12-23T13:21:12.679Z,78.13
2022-12-23T13:23:44.761Z,79.30
2022-12-23T13:26:20.351Z,78.23
2022-12-23T13:28:52.412Z,78.00
2022-12-23T13:31:27.169Z,86.93
2022-12-23T13:34:00.713Z,83.23
2022-12-23T13:36:34.747Z,81.83
2022-12-23T13:39:20.134Z,77.07
2022-12-23T13:41:51.127Z,76.87
2022-12-23T13:44:20.245Z,94.50
2022-12-23T13:46:53.963Z,83.47
2022-12-23T13:49:27.167Z,82.20
2022-12-23T13:51:58.671Z,82.53
2022-12-23T13:54:35.952Z,87.27
2022-12-23T13:57:08.710Z,95.87
2022-12-23T13:59:41.066Z,85.70
2022-12-23T14:02:24.660Z,80.33
2022-12-23T14:05:02.073Z,93.03
2022-12-23T14:07:32.397Z,87.83
2022-12-23T14:10:21.631Z,84.60
2022-12-23T14:12:50.224Z,90.10
2022-12-23T14:15:28.310Z,116.03
2022-12-23T14:18:04.937Z,88.00
2022-12-23T14:20:40.439Z,87.67
2022-12-23T14:23:18.329Z,109.07
2022-12-23T14:25:59.673Z,92.23
2022-12-23T14:28:42.947Z,89.83
2022-12-23T14:31:26.219Z,109.53
2022-12-23T14:33:54.722Z,98.57
2022-12-23T14:36:25.104Z,90.93
2022-12-23T14:39:12.239Z,88.83
2022-12-23T14:41:50.063Z,112.17
2022-12-23T14:44:22.253Z,92.50
2022-12-23T14:46:59.453Z,86.17
2022-12-23T14:49:48.659Z,103.73
2022-12-23T14:52:39.343Z,92.40
2022-12-23T14:55:32.273Z,86.73
2022-12-23T14:58:07.691Z,99.83
2022-12-23T15:00:46.907Z,99.63
2022-12-23T15:03:15.433Z,99.97
2022-12-23T15:05:45.257Z,98.47
2022-12-23T15:08:20.867Z,105.23
2022-12-23T15:10:49.307Z,103.10
2022-12-23T15:13:19.448Z,100.27
2022-12-23T15:15:58.926Z,101.97
2022-12-23T15:18:29.601Z,112.00
2022-12-23T15:21:01.884Z,106.47
2022-12-23T15:23:30.753Z,109.07
2022-12-23T15:26:00.371Z,116.37
2022-12-23T15:28:36.448Z,111.37
2022-12-23T15:31:05.945Z,109.73
2022-12-23T15:34:02.320Z,106.77
2022-12-23T15:36:30.625Z,113.37
2022-12-23T15:38:59.773Z,112.03
2022-12-23T15:41:28.375Z,107.90
2022-12-23T15:44:01.980Z,116.20
2022-12-23T15:46:30.893Z,119.07
2022-12-23T15:48:59.561Z,124.37
2022-12-23T15:52:05.118Z,125.07
2022-12-23T15:54:22.726Z,127.03
2022-12-23T15:56:52.332Z,128.60
2022-12-23T15:59:25.806Z,127.67
2022-12-23T16:01:55.049Z,126.20
2022-12-23T16:04:26.179Z,129.80
2022-12-23T16:06:55.467Z,126.20
2022-12-23T16:09:34.584Z,127.57
2022-12-23T16:12:04.105Z,123.60
2022-12-23T16:14:38.575Z,126.85
2022-12-23T16:17:24.932Z,109.60
2022-12-23T16:19:54.547Z,102.73
2022-12-23T16:22:27.404Z,101.47
2022-12-23T16:25:00.018Z,98.13
2022-12-23T16:27:34.104Z,97.10
2022-12-23T16:30:05.653Z,90.87
2022-12-23T16:32:34.080Z,93.47
2022-12-23T16:35:11.057Z,89.80
2022-12-23T16:37:39.439Z,87.90
2022-12-23T16:40:14.385Z,87.23
2022-12-23T16:42:42.786Z,84.50
2022-12-23T16:45:15.420Z,86.30
2022-12-23T16:47:44.275Z,84.17
2022-12-23T16:50:14.465Z,82.17
2022-12-23T16:52:42.883Z,86.27
2022-12-23T16:55:16.328Z,84.73
2022-12-23T16:57:44.792Z,82.20
2022-12-23T17:00:17.513Z,81.13
2022-12-23T17:02:47.053Z,80.33
2022-12-23T17:05:17.353Z,80.93
2022-12-23T17:07:47.135Z,79.40
2022-12-23T17:10:17.690Z,81.40
2022-12-23T17:12:47.015Z,79.97
2022-12-23T17:15:20.082Z,78.53
2022-12-23T17:17:49.275Z,80.87
2022-12-23T17:20:17.838Z,82.03
2022-12-23T17:22:47.933Z,80.10
2022-12-23T17:25:22.916Z,80.23
2022-12-23T17:27:55.687Z,82.27
2022-12-23T17:30:26.188Z,83.70
2022-12-23T17:32:57.170Z,80.40
2022-12-23T17:35:26.022Z,81.23
2022-12-23T17:37:54.907Z,80.47
2022-12-23T17:40:23.332Z,78.73
2022-12-23T17:42:51.763Z,80.90
2022-12-23T17:45:27.265Z,79.23
2022-12-23T17:47:55.879Z,80.27
2022-12-23T17:50:24.866Z,79.93
2022-12-23T17:52:53.484Z,80.70
2022-12-23T17:55:23.776Z,79.77
2022-12-23T17:57:52.767Z,81.77
2022-12-23T18:00:29.925Z,82.73
2022-12-23T18:03:03.861Z,82.10
2022-12-23T18:05:33.811Z,80.30
2022-12-23T18:08:03.179Z,78.97
2022-12-23T18:10:32.595Z,81.13
2022-12-23T18:13:01.944Z,81.40
2022-12-23T18:15:33.292Z,78.00
2022-12-23T18:18:01.838Z,78.83
2022-12-23T18:20:31.624Z,78.83
2022-12-23T18:23:01.749Z,78.17
2022-12-23T18:25:30.228Z,79.77
2022-12-23T18:27:58.649Z,79.07
2022-12-23T18:30:27.102Z,80.43
2022-12-23T18:32:55.575Z,78.70
2022-12-23T18:35:26.516Z,84.83
2022-12-23T18:37:56.689Z,87.93
2022-12-23T18:40:30.878Z,85.83
2022-12-23T18:43:01.358Z,84.30
2022-12-23T18:45:34.750Z,86.63
2022-12-23T18:48:03.923Z,84.70
2022-12-23T18:50:33.399Z,89.53
2022-12-23T18:53:03.422Z,86.63
2022-12-23T18:55:32.067Z,90.53
2022-12-23T18:58:01.338Z,89.20
2022-12-23T19:00:31.204Z,85.10
2022-12-23T19:02:59.662Z,90.63
2022-12-23T19:05:29.447Z,87.43
2022-12-23T19:07:59.169Z,90.07
2022-12-23T19:10:30.706Z,92.13
2022-12-23T19:12:59.079Z,90.97
2022-12-23T19:15:28.245Z,92.30
2022-12-23T19:17:56.702Z,90.90
2022-12-23T19:20:25.484Z,85.17
2022-12-23T19:22:53.911Z,88.47
2022-12-23T19:25:22.368Z,87.63
2022-12-23T19:27:52.390Z,84.97
2022-12-23T19:30:20.856Z,86.27
2022-12-23T19:32:53.335Z,87.37
2022-12-23T19:35:21.873Z,89.83
2022-12-23T19:37:50.280Z,93.77
2022-12-23T19:40:19.117Z,95.87
2022-12-23T19:42:47.503Z,92.93
2022-12-23T19:45:17.365Z,93.10
2022-12-23T19:47:45.970Z,95.90
2022-12-23T19:50:14.370Z,93.07
2022-12-23T19:52:43.016Z,90.53
2022-12-23T19:55:13.005Z,90.70
2022-12-23T19:57:41.398Z,95.23
2022-12-23T20:00:10.433Z,93.50
2022-12-23T20:02:40.253Z,95.57
2022-12-23T20:05:09.658Z,93.63
2022-12-23T20:07:38.202Z,92.30
2022-12-23T20:10:07.150Z,93.00
2022-12-23T20:12:35.609Z,90.50
2022-12-23T20:15:03.994Z,89.23
2022-12-23T20:17:32.553Z,92.50
2022-12-23T20:20:02.297Z,90.70
2022-12-23T20:22:30.680Z,93.63
2022-12-23T20:24:59.466Z,92.83
2022-12-23T20:27:28.489Z,92.67
2022-12-23T20:29:56.914Z,94.70
2022-12-23T20:32:25.314Z,94.63
2022-12-23T20:34:53.742Z,94.00
2022-12-23T20:37:23.533Z,96.67
2022-12-23T20:39:51.919Z,94.30
2022-12-23T20:42:20.291Z,93.27
2022-12-23T20:44:48.729Z,96.47
2022-12-23T20:47:17.128Z,94.80
2022-12-23T20:49:45.525Z,93.93
2022-12-23T20:52:13.900Z,94.17
2022-12-23T20:54:43.704Z,96.17
2022-12-23T20:57:12.108Z,94.93
2022-12-23T20:59:40.525Z,97.77
2022-12-23T21:02:09.138Z,95.37
2022-12-23T21:04:37.560Z,94.77
2022-12-23T21:07:06.031Z,96.47
2022-12-23T21:09:34.618Z,95.70
2022-12-23T21:12:04.417Z,94.63
2022-12-23T21:14:32.880Z,97.03
2022-12-23T21:17:01.291Z,95.33
2022-12-23T21:19:30.132Z,94.60
2022-12-23T21:21:58.663Z,94.63
2022-12-23T21:24:27.325Z,99.80
2022-12-23T21:26:57.039Z,95.37
2022-12-23T21:29:27.339Z,97.10
2022-12-23T21:31:56.061Z,99.63
2022-12-23T21:34:24.629Z,97.07
2022-12-23T21:36:53.099Z,97.97
2022-12-23T21:39:21.567Z,97.20
2022-12-23T21:41:51.470Z,99.73
2022-12-23T21:44:20.199Z,97.07
2022-12-23T21:46:50.746Z,98.20
2022-12-23T21:49:19.479Z,99.20
2022-12-23T21:51:47.939Z,96.60
2022-12-23T21:54:16.349Z,98.00
2022-12-23T21:56:44.742Z,99.27
2022-12-23T21:59:14.093Z,99.67
2022-12-23T22:01:42.893Z,97.20
2022-12-23T22:04:13.125Z,98.10
2022-12-23T22:06:44.613Z,98.43
2022-12-23T22:09:14.356Z,94.33
2022-12-23T22:11:42.761Z,93.30
2022-12-23T22:14:13.697Z,89.40
2022-12-23T22:16:42.125Z,90.33
2022-12-23T22:19:12.073Z,93.80
2022-12-23T22:21:42.799Z,94.30
2022-12-23T22:24:11.349Z,93.03
2022-12-23T22:26:40.772Z,91.63
2022-12-23T22:29:09.359Z,91.07
2022-12-23T22:31:39.818Z,92.27
2022-12-23T22:34:09.160Z,91.50
2022-12-23T22:36:37.593Z,91.70
2022-12-23T22:39:08.023Z,92.80
2022-12-23T22:41:36.663Z,95.03
2022-12-23T22:44:05.129Z,101.13
2022-12-23T22:46:33.701Z,94.73
2022-12-23T22:49:02.319Z,91.53
2022-12-23T22:51:32.097Z,90.80
2022-12-23T22:54:01.003Z,91.63
2022-12-23T22:56:30.776Z,89.23
2022-12-23T22:58:59.354Z,89.97
2022-12-23T23:01:28.627Z,89.90
2022-12-23T23:03:57.857Z,91.40
2022-12-23T23:06:26.843Z,93.53
2022-12-23T23:08:55.781Z,89.30
2022-12-23T23:11:24.577Z,93.20
2022-12-23T23:13:54.412Z,92.60
2022-12-23T23:16:23.728Z,89.63
2022-12-23T23:18:52.566Z,90.30
2022-12-23T23:21:21.179Z,87.30
2022-12-23T23:23:49.955Z,87.83
2022-12-23T23:26:19.018Z,90.67
2022-12-23T23:28:47.915Z,87.17
2022-12-23T23:31:41.221Z,91.07
2022-12-23T23:34:06.318Z,91.33
2022-12-23T23:36:34.740Z,89.33
2022-12-23T23:39:03.273Z,88.07
2022-12-23T23:41:31.840Z,86.50
2022-12-23T23:44:00.264Z,90.20
2022-12-23T23:46:31.760Z,91.53
2022-12-23T23:49:00.313Z,92.07
2022-12-23T23:51:28.749Z,91.70
2022-12-23T23:53:57.150Z,94.03
2022-12-23T23:56:26.734Z,93.83
2022-12-23T23:58:56.568Z,88.93
